createdAt,value
2022-09-02T00:01:22.438Z,74.12
2022-09-02T00:03:49.020Z,73.89
2022-09-02T00:06:16.863Z,73.89
2022-09-02T00:08:44.545Z,73.61
2022-09-02T00:11:15.500Z,73.97
2022-09-02T00:13:42.154Z,74.02
2022-09-02T00:16:10.930Z,73.93
2022-09-02T00:18:38.075Z,73.50
2022-09-02T00:21:04.910Z,73.45
2022-09-02T00:23:31.647Z,73.08
2022-09-02T00:25:58.432Z,72.87
2022-09-02T00:28:26.462Z,73.09
2022-09-02T00:30:53.120Z,72.84
2022-09-02T00:33:19.914Z,72.42
2022-09-02T00:35:46.644Z,72.24
2022-09-02T00:38:13.356Z,72.15
2022-09-02T00:40:44.761Z,71.95
2022-09-02T00:43:11.654Z,72.18
2022-09-02T00:45:38.378Z,72.47
2022-09-02T00:48:08.057Z,72.37
2022-09-02T00:50:36.717Z,72.08
2022-09-02T00:53:08.610Z,72.41
2022-09-02T00:55:40.743Z,72.23
2022-09-02T00:58:25.786Z,72.58
2022-09-02T01:00:58.440Z,72.52
2022-09-02T01:03:29.542Z,72.64
2022-09-02T01:05:57.916Z,72.94
2022-09-02T01:08:30.120Z,72.85
2022-09-02T01:10:57.626Z,73.20
2022-09-02T01:13:27.304Z,73.21
2022-09-02T01:16:23.293Z,72.99
2022-09-02T01:18:52.643Z,73.72
2022-09-02T01:21:20.299Z,73.68
2022-09-02T01:23:48.313Z,73.98
2022-09-02T01:26:15.072Z,74.31
2022-09-02T01:28:41.813Z,74.52
2022-09-02T01:31:09.395Z,74.30
2022-09-02T01:33:36.441Z,74.36
2022-09-02T01:36:04.712Z,74.09
2022-09-02T01:38:32.364Z,73.73
2022-09-02T01:40:59.019Z,73.67
2022-09-02T01:43:27.149Z,73.60
2022-09-02T01:45:56.291Z,73.38
2022-09-02T01:48:23.325Z,73.83
2022-09-02T01:50:56.838Z,73.67
2022-09-02T01:53:24.400Z,73.79
2022-09-02T01:55:50.991Z,74.66
2022-09-02T01:58:17.717Z,74.65
2022-09-02T02:00:44.520Z,74.28
2022-09-02T02:03:11.433Z,74.65
2022-09-02T02:05:38.232Z,74.84
2022-09-02T02:08:05.302Z,74.68
2022-09-02T02:10:32.265Z,74.24
2022-09-02T02:13:01.250Z,73.90
2022-09-02T02:17:54.318Z,74.13
2022-09-02T02:20:21.759Z,74.33
2022-09-02T02:22:49.026Z,74.20
2022-09-02T02:25:16.727Z,74.18
2022-09-02T02:27:43.912Z,74.40
2022-09-02T02:30:12.569Z,74.19
2022-09-02T02:32:39.310Z,74.50
2022-09-02T02:35:06.673Z,73.99
2022-09-02T02:37:33.446Z,74.38
2022-09-02T02:40:00.211Z,74.82
2022-09-02T02:42:26.947Z,74.73
2022-09-02T02:44:53.692Z,73.82
2022-09-02T02:47:20.370Z,74.25
2022-09-02T02:49:47.163Z,74.25
2022-09-02T02:52:13.790Z,74.51
2022-09-02T02:54:41.280Z,74.96
2022-09-02T02:57:09.869Z,74.99
2022-09-02T02:59:37.759Z,74.74
2022-09-02T03:02:07.074Z,74.71
2022-09-02T03:04:34.505Z,74.94
2022-09-02T03:07:01.188Z,74.82
2022-09-02T03:09:27.988Z,75.14
2022-09-02T03:11:54.658Z,75.48
2022-09-02T03:14:21.305Z,75.40
2022-09-02T03:16:47.899Z,75.21
2022-09-02T03:19:14.464Z,75.06
2022-09-02T03:21:42.532Z,75.49
2022-09-02T03:24:11.674Z,75.74
2022-09-02T03:26:40.649Z,75.47
2022-09-02T03:29:07.521Z,75.54
2022-09-02T03:31:34.588Z,75.52
2022-09-02T03:34:01.227Z,75.46
2022-09-02T03:36:35.993Z,75.50
2022-09-02T03:39:06.927Z,75.60
2022-09-02T03:41:37.234Z,75.11
2022-09-02T03:44:04.462Z,74.48
2022-09-02T03:46:31.328Z,74.26
2022-09-02T03:48:58.088Z,74.50
2022-09-02T03:51:25.860Z,74.64
2022-09-02T03:53:52.895Z,74.85
2022-09-02T03:56:20.855Z,75.21
2022-09-02T03:58:49.829Z,75.22
2022-09-02T04:01:22.283Z,75.31
2022-09-02T04:03:49.957Z,75.29
2022-09-02T04:06:18.644Z,75.60
2022-09-02T04:08:45.584Z,75.76
2022-09-02T04:11:17.691Z,75.93
2022-09-02T04:13:50.462Z,76.18
2022-09-02T04:16:21.127Z,76.34
2022-09-02T04:18:47.798Z,76.50
2022-09-02T04:21:14.647Z,76.42
2022-09-02T04:23:41.312Z,76.76
2022-09-02T04:26:11.523Z,76.94
2022-09-02T04:28:39.003Z,76.56
2022-09-02T04:31:07.622Z,76.57
2022-09-02T04:33:35.465Z,76.75
2022-09-02T04:36:06.587Z,76.37
2022-09-02T04:38:33.694Z,76.32
2022-09-02T04:41:00.374Z,76.21
2022-09-02T04:43:27.018Z,75.92
2022-09-02T04:45:53.692Z,76.18
2022-09-02T04:48:20.416Z,75.62
2022-09-02T04:50:48.047Z,75.07
2022-09-02T04:53:14.787Z,75.47
2022-09-02T04:55:42.541Z,74.68
2022-09-02T04:58:10.568Z,74.36
2022-09-02T05:00:39.552Z,74.62
2022-09-02T05:03:06.849Z,74.52
2022-09-02T05:05:35.207Z,74.42
2022-09-02T05:08:04.717Z,74.35
2022-09-02T05:10:33.397Z,73.94
2022-09-02T05:13:00.725Z,74.16
2022-09-02T05:15:27.636Z,73.75
2022-09-02T05:17:54.548Z,73.97
2022-09-02T05:20:21.248Z,73.76
2022-09-02T05:22:50.120Z,73.34
2022-09-02T05:25:16.810Z,73.30
2022-09-02T05:27:43.493Z,73.28
2022-09-02T05:30:10.560Z,73.33
2022-09-02T05:32:38.123Z,73.19
2022-09-02T05:35:05.566Z,73.19
2022-09-02T05:37:36.003Z,73.19
2022-09-02T05:40:03.172Z,72.88
2022-09-02T05:42:30.966Z,73.09
2022-09-02T05:44:57.657Z,73.06
2022-09-02T05:47:25.312Z,72.87
2022-09-02T05:49:52.285Z,72.59
2022-09-02T05:52:19.052Z,72.34
2022-09-02T05:54:46.059Z,72.34
2022-09-02T05:57:16.109Z,71.92
2022-09-02T05:59:44.191Z,71.43
2022-09-02T06:02:13.122Z,71.43
2022-09-02T06:04:42.785Z,71.23
2022-09-02T06:07:09.887Z,71.08
2022-09-02T06:09:41.208Z,71.17
2022-09-02T06:12:08.856Z,71.19
2022-09-02T06:14:35.740Z,71.08
2022-09-02T06:17:05.287Z,71.16
2022-09-02T06:19:38.240Z,70.74
2022-09-02T06:22:07.948Z,69.88
2022-09-02T06:24:38.187Z,69.71
2022-09-02T06:27:07.276Z,69.42
2022-09-02T06:29:33.938Z,68.93
2022-09-02T06:32:00.651Z,69.02
2022-09-02T06:34:27.604Z,68.80
2022-09-02T06:36:55.080Z,67.91
2022-09-02T06:39:23.595Z,67.72
2022-09-02T06:41:50.510Z,68.53
2022-09-02T06:44:18.999Z,67.55
2022-09-02T06:46:54.277Z,67.08
2022-09-02T06:49:22.146Z,67.26
2022-09-02T06:51:50.588Z,67.59
2022-09-02T06:54:21.914Z,67.34
2022-09-02T06:56:50.439Z,67.18
2022-09-02T06:59:21.666Z,67.25
2022-09-02T07:01:50.231Z,66.39
2022-09-02T07:04:38.601Z,66.58
2022-09-02T07:07:08.494Z,66.04
2022-09-02T07:09:35.483Z,66.11
2022-09-02T07:12:05.098Z,65.99
2022-09-02T07:14:37.345Z,65.54
2022-09-02T07:17:05.327Z,65.55
2022-09-02T07:19:32.270Z,64.91
2022-09-02T07:21:58.870Z,65.75
2022-09-02T07:24:25.933Z,65.48
2022-09-02T07:26:55.431Z,65.59
2022-09-02T07:29:23.403Z,65.61
2022-09-02T07:31:50.704Z,65.01
2022-09-02T07:34:18.870Z,64.64
2022-09-02T07:36:46.179Z,64.58
2022-09-02T07:39:14.467Z,65.40
2022-09-02T07:41:42.734Z,64.26
2022-09-02T07:44:09.573Z,64.74
2022-09-02T07:46:37.473Z,63.23
2022-09-02T07:49:09.225Z,62.78
2022-09-02T07:51:39.219Z,62.59
2022-09-02T07:54:07.292Z,62.50
2022-09-02T07:56:34.312Z,62.98
2022-09-02T07:59:01.635Z,62.77
2022-09-02T08:01:29.100Z,62.71
2022-09-02T08:03:56.002Z,62.73
2022-09-02T08:06:34.411Z,62.67
2022-09-02T08:09:04.776Z,62.16
2022-09-02T08:11:32.842Z,61.70
2022-09-02T08:14:08.356Z,61.58
2022-09-02T08:16:42.805Z,61.22
2022-09-02T08:19:09.549Z,60.73
2022-09-02T08:21:36.718Z,59.80
2022-09-02T08:24:04.233Z,59.22
2022-09-02T08:26:32.149Z,59.09
2022-09-02T08:28:58.868Z,58.76
2022-09-02T08:31:25.633Z,58.58
2022-09-02T08:33:52.577Z,58.40
2022-09-02T08:36:21.200Z,58.16
2022-09-02T08:38:48.086Z,57.84
2022-09-02T08:41:23.765Z,56.80
2022-09-02T08:43:53.833Z,57.31
2022-09-02T08:46:26.572Z,57.13
2022-09-02T08:48:59.511Z,56.68
2022-09-02T08:51:41.509Z,56.47
2022-09-02T08:54:20.830Z,54.92
2022-09-02T08:56:48.761Z,54.36
2022-09-02T08:59:15.899Z,54.36
2022-09-02T09:02:05.653Z,54.47
2022-09-02T09:04:38.281Z,55.47
2022-09-02T09:10:13.844Z,54.83
2022-09-02T09:12:40.350Z,54.04
2022-09-02T09:15:38.034Z,53.66
2022-09-02T09:18:08.769Z,53.97
2022-09-02T09:20:42.298Z,53.45
2022-09-02T09:23:34.703Z,51.93
2022-09-02T09:26:13.212Z,51.73
2022-09-02T09:28:45.305Z,52.20
2022-09-02T09:31:21.733Z,52.37
2022-09-02T09:34:01.087Z,51.22
2022-09-02T09:36:39.802Z,50.94
2022-09-02T09:39:20.455Z,50.60
2022-09-02T09:41:49.035Z,51.05
2022-09-02T09:44:30.691Z,49.77
2022-09-02T09:47:02.010Z,50.39
2022-09-02T09:49:29.258Z,49.88
2022-09-02T09:51:56.416Z,49.07
2022-09-02T09:54:26.629Z,47.54
2022-09-02T09:57:12.752Z,47.08
2022-09-02T09:59:57.020Z,46.15
2022-09-02T10:02:27.172Z,46.45
2022-09-02T10:05:15.227Z,46.73
2022-09-02T10:07:45.221Z,45.95
2022-09-02T10:10:27.268Z,44.96
2022-09-02T10:13:00.165Z,44.83
2022-09-02T10:15:57.201Z,42.97
2022-09-02T10:18:28.715Z,43.87
2022-09-02T10:21:23.579Z,43.49
2022-09-02T10:24:09.021Z,42.29
2022-09-02T10:26:51.132Z,42.85
2022-09-02T10:29:23.609Z,41.43
2022-09-02T10:32:13.682Z,41.32
2022-09-02T10:35:06.112Z,37.68
2022-09-02T10:37:43.773Z,38.14
2022-09-02T10:40:16.137Z,38.58
2022-09-02T10:42:57.384Z,39.56
2022-09-02T10:45:36.220Z,38.71
2022-09-02T10:48:14.943Z,38.52
2022-09-02T10:51:16.024Z,36.06
2022-09-02T10:54:03.882Z,36.75
2022-09-02T10:56:40.456Z,37.35
2022-09-02T10:59:16.589Z,38.08
2022-09-02T11:01:46.746Z,38.60
2022-09-02T11:04:39.879Z,36.84
2022-09-02T11:07:11.170Z,36.52
2022-09-02T11:09:44.139Z,35.60
2022-09-02T11:12:23.077Z,34.28
2022-09-02T11:15:11.947Z,34.44
2022-09-02T11:17:46.920Z,34.33
2022-09-02T11:20:30.671Z,33.04
2022-09-02T11:23:13.861Z,33.33
2022-09-02T11:25:57.607Z,34.34
2022-09-02T11:28:43.956Z,34.00
2022-09-02T11:31:38.862Z,34.29
2022-09-02T11:34:35.150Z,34.37
2022-09-02T11:37:11.481Z,35.42
2022-09-02T11:39:54.455Z,34.72
2022-09-02T11:42:56.700Z,34.66
2022-09-02T11:45:47.898Z,33.77
2022-09-02T11:48:39.434Z,32.70
2022-09-02T11:53:49.202Z,32.37
2022-09-02T11:56:44.531Z,31.23
2022-09-02T11:59:22.364Z,30.99
2022-09-02T12:02:01.419Z,31.01
2022-09-02T12:07:14.930Z,30.22
2022-09-02T12:09:55.226Z,30.30
2022-09-02T12:12:37.404Z,29.48
2022-09-02T12:15:05.034Z,29.84
2022-09-02T12:17:40.129Z,29.04
2022-09-02T12:20:11.287Z,28.91
2022-09-02T12:22:42.465Z,28.85
2022-09-02T12:25:24.547Z,27.91
2022-09-02T12:28:19.081Z,28.09
2022-09-02T12:31:01.612Z,28.03
2022-09-02T12:33:33.833Z,28.10
2022-09-02T12:36:01.060Z,28.42
2022-09-02T12:38:30.682Z,29.04
2022-09-02T12:41:07.879Z,28.86
2022-09-02T12:44:12.831Z,29.32
2022-09-02T12:46:50.934Z,30.30
2022-09-02T12:49:39.168Z,30.64
2022-09-02T12:52:09.980Z,30.76
2022-09-02T12:54:39.355Z,31.19
2022-09-02T12:57:10.667Z,32.31
2022-09-02T12:59:41.819Z,32.37
2022-09-02T13:02:20.512Z,32.20
2022-09-02T13:05:28.750Z,32.53
2022-09-02T13:08:02.574Z,32.65
2022-09-02T13:10:58.238Z,32.39
2022-09-02T13:13:40.427Z,33.82
2022-09-02T13:16:15.484Z,34.09
2022-09-02T13:19:29.454Z,34.26
2022-09-02T13:22:39.901Z,34.80
2022-09-02T13:25:29.105Z,34.82
2022-09-02T13:28:20.975Z,35.00
2022-09-02T13:30:50.244Z,35.60
2022-09-02T13:33:17.151Z,35.60
2022-09-02T13:35:44.553Z,36.03
2022-09-02T13:38:12.842Z,36.28
2022-09-02T13:40:40.967Z,36.72
2022-09-02T13:43:13.661Z,36.57
2022-09-02T13:45:41.043Z,36.64
2022-09-02T13:51:14.432Z,37.32
2022-09-02T13:54:23.078Z,37.50
2022-09-02T13:56:50.160Z,37.92
2022-09-02T13:59:50.864Z,37.23
2022-09-02T14:03:16.425Z,37.46
2022-09-02T14:06:08.125Z,37.03
2022-09-02T14:08:35.642Z,37.09
2022-09-02T14:11:30.798Z,37.06
2022-09-02T14:14:00.036Z,37.32
2022-09-02T14:16:35.800Z,37.32
2022-09-02T14:19:32.839Z,37.51
2022-09-02T14:21:59.500Z,37.12
2022-09-02T14:24:29.849Z,37.02
2022-09-02T14:27:00.549Z,37.30
2022-09-02T14:29:34.147Z,37.99
2022-09-02T14:32:23.357Z,37.55
2022-09-02T14:35:14.438Z,36.98
2022-09-02T14:37:53.161Z,36.77
2022-09-02T14:40:42.122Z,37.59
2022-09-02T14:43:19.986Z,37.10
2022-09-02T14:45:52.174Z,36.97
2022-09-02T14:48:29.754Z,37.06
2022-09-02T14:51:06.611Z,37.48
2022-09-02T14:53:35.221Z,37.01
2022-09-02T14:56:05.425Z,37.72
2022-09-02T14:58:37.746Z,37.70
2022-09-02T15:01:09.115Z,37.14
2022-09-02T15:03:40.744Z,37.50
2022-09-02T15:06:10.881Z,37.09
2022-09-02T15:08:45.404Z,37.73
2022-09-02T15:11:17.351Z,37.75
2022-09-02T15:13:53.275Z,38.15
2022-09-02T15:16:26.376Z,37.77
2022-09-02T15:18:53.187Z,37.96
2022-09-02T15:21:23.807Z,38.06
2022-09-02T15:23:57.059Z,38.49
2022-09-02T15:26:24.189Z,38.71
2022-09-02T15:28:53.859Z,38.47
2022-09-02T15:31:21.913Z,38.70
2022-09-02T15:33:52.407Z,38.62
2022-09-02T15:36:19.798Z,38.21
2022-09-02T15:38:47.673Z,38.88
2022-09-02T15:41:17.258Z,38.30
2022-09-02T15:43:45.209Z,38.33
2022-09-02T15:46:21.147Z,38.25
2022-09-02T15:48:48.652Z,38.42
2022-09-02T15:51:17.099Z,38.46
2022-09-02T15:53:44.105Z,38.78
2022-09-02T15:56:23.500Z,38.32
2022-09-02T15:59:09.199Z,38.77
2022-09-02T16:01:40.802Z,38.59
2022-09-02T16:04:07.976Z,38.79
2022-09-02T16:06:36.460Z,38.84
2022-09-02T16:09:03.917Z,39.27
2022-09-02T16:11:30.488Z,39.00
2022-09-02T16:13:57.054Z,38.99
2022-09-02T16:16:23.890Z,40.13
2022-09-02T16:18:53.284Z,38.67
2022-09-02T16:21:21.326Z,39.04
2022-09-02T16:23:49.538Z,38.77
2022-09-02T16:26:24.240Z,39.04
2022-09-02T16:28:56.091Z,39.26
2022-09-02T16:31:24.877Z,39.87
2022-09-02T16:33:57.352Z,40.12
2022-09-02T16:36:26.859Z,40.06
2022-09-02T16:39:03.227Z,40.03
2022-09-02T16:41:35.814Z,40.51
2022-09-02T16:44:05.711Z,40.45
2022-09-02T16:46:33.522Z,40.70
2022-09-02T16:49:00.304Z,40.42
2022-09-02T16:51:27.849Z,40.44
2022-09-02T16:53:56.600Z,40.38
2022-09-02T16:56:24.342Z,40.60
2022-09-02T16:58:52.809Z,40.83
2022-09-02T17:01:22.083Z,40.70
2022-09-02T17:03:50.657Z,40.48
2022-09-02T17:06:17.755Z,40.38
2022-09-02T17:08:44.408Z,40.38
2022-09-02T17:11:12.028Z,40.92
2022-09-02T17:13:40.310Z,40.75
2022-09-02T17:16:07.892Z,41.08
2022-09-02T17:18:35.229Z,41.00
2022-09-02T17:21:14.239Z,40.78
2022-09-02T17:23:41.120Z,41.30
2022-09-02T17:26:07.815Z,41.43
2022-09-02T17:28:34.499Z,41.69
2022-09-02T17:31:02.356Z,42.01
2022-09-02T17:33:29.215Z,41.94
2022-09-02T17:36:00.873Z,42.15
2022-09-02T17:38:27.517Z,41.96
2022-09-02T17:41:12.790Z,42.10
2022-09-02T17:43:39.668Z,42.51
2022-09-02T17:46:09.639Z,42.71
2022-09-02T17:48:53.556Z,43.10
2022-09-02T17:51:20.772Z,43.68
2022-09-02T17:53:48.897Z,44.02
2022-09-02T17:56:31.102Z,44.38
2022-09-02T17:59:22.311Z,44.80
2022-09-02T18:02:01.286Z,44.74
2022-09-02T18:04:48.289Z,45.11
2022-09-02T18:08:01.448Z,45.22
2022-09-02T18:10:34.499Z,45.77
2022-09-02T18:13:16.354Z,45.78
2022-09-02T18:15:52.002Z,46.15
2022-09-02T18:18:21.616Z,45.76
2022-09-02T18:20:56.605Z,45.81
2022-09-02T18:23:41.671Z,46.39
2022-09-02T18:26:49.105Z,47.00
2022-09-02T18:29:48.204Z,46.96
2022-09-02T18:32:42.351Z,47.27
2022-09-02T18:35:33.680Z,47.78
2022-09-02T18:38:09.190Z,47.81
2022-09-02T18:41:03.114Z,47.98
2022-09-02T18:43:42.438Z,48.14
2022-09-02T18:46:13.723Z,48.12
2022-09-02T18:48:40.815Z,48.75
2022-09-02T18:51:39.095Z,48.65
2022-09-02T18:54:23.084Z,49.06
2022-09-02T18:56:56.997Z,49.27
2022-09-02T18:59:32.998Z,49.53
2022-09-02T19:02:12.882Z,49.89
2022-09-02T19:04:43.406Z,49.48
2022-09-02T19:07:31.656Z,49.90
2022-09-02T19:10:04.018Z,50.08
2022-09-02T19:12:33.802Z,50.09
2022-09-02T19:15:01.467Z,50.34
2022-09-02T19:17:28.614Z,50.28
2022-09-02T19:19:55.361Z,50.19
2022-09-02T19:22:28.423Z,50.11
2022-09-02T19:25:02.418Z,50.13
2022-09-02T19:27:50.744Z,50.40
2022-09-02T19:30:22.424Z,49.93
2022-09-02T19:32:53.503Z,50.09
2022-09-02T19:35:23.827Z,49.80
2022-09-02T19:37:53.470Z,49.71
2022-09-02T19:40:28.569Z,49.71
2022-09-02T19:42:58.090Z,49.74
2022-09-02T19:45:28.099Z,49.94
2022-09-02T19:48:10.643Z,49.81
2022-09-02T19:50:43.195Z,50.22
2022-09-02T19:53:16.128Z,50.00
2022-09-02T19:55:43.020Z,50.02
2022-09-02T19:58:09.802Z,49.82
2022-09-02T20:00:36.848Z,49.98
2022-09-02T20:03:03.586Z,49.76
2022-09-02T20:05:31.241Z,49.84
2022-09-02T20:07:57.904Z,49.63
2022-09-02T20:10:27.823Z,49.49
2022-09-02T20:12:55.053Z,49.29
2022-09-02T20:15:21.733Z,49.23
2022-09-02T20:17:49.445Z,49.15
2022-09-02T20:20:19.520Z,49.40
2022-09-02T20:22:57.633Z,49.24
2022-09-02T20:25:35.008Z,49.11
2022-09-02T20:28:24.161Z,49.28
2022-09-02T20:30:57.972Z,49.32
2022-09-02T20:33:29.199Z,49.34
2022-09-02T20:35:58.124Z,49.41
2022-09-02T20:38:47.554Z,49.71
2022-09-02T20:41:34.442Z,49.92
2022-09-02T20:44:16.604Z,49.59
2022-09-02T20:46:58.988Z,49.14
2022-09-02T20:49:44.486Z,49.43
2022-09-02T20:52:39.367Z,48.95
2022-09-02T20:55:32.153Z,48.83
2022-09-02T21:10:35.787Z,48.78
2022-09-02T21:21:12.279Z,49.15
2022-09-02T21:23:45.468Z,49.39
2022-09-02T21:26:20.773Z,49.86
2022-09-02T21:29:01.867Z,50.01
2022-09-02T21:31:40.903Z,50.45
2022-09-02T21:34:30.842Z,50.12
2022-09-02T21:36:58.995Z,50.53
2022-09-02T21:39:29.647Z,50.59
2022-09-02T21:42:04.099Z,51.18
2022-09-02T21:45:04.652Z,51.39
2022-09-02T21:47:48.761Z,52.08
2022-09-02T21:50:22.423Z,52.21
2022-09-02T21:53:24.884Z,52.49
2022-09-02T21:56:14.545Z,52.67
2022-09-02T21:59:03.601Z,52.32
2022-09-02T22:01:50.190Z,52.64
2022-09-02T22:04:38.434Z,52.55
2022-09-02T22:07:39.163Z,52.41
2022-09-02T22:10:20.264Z,52.22
2022-09-02T22:12:52.628Z,51.96
2022-09-02T22:16:13.169Z,52.51
2022-09-02T22:18:45.164Z,52.26
2022-09-02T22:21:28.546Z,52.81
2022-09-02T22:23:55.909Z,52.78
2022-09-02T22:26:44.561Z,52.71
2022-09-02T22:29:32.513Z,53.27
2022-09-02T22:32:01.808Z,52.88
2022-09-02T22:34:33.865Z,52.88
2022-09-02T22:37:06.237Z,53.00
2022-09-02T22:39:41.675Z,52.87
2022-09-02T22:42:30.295Z,53.12
2022-09-02T22:45:29.135Z,52.82
2022-09-02T22:48:27.516Z,53.32
2022-09-02T22:51:21.494Z,52.96
2022-09-02T22:53:50.498Z,52.79
2022-09-02T22:56:41.959Z,52.92
2022-09-02T22:59:41.874Z,53.14
2022-09-02T23:02:20.797Z,53.12
2022-09-02T23:04:58.927Z,52.85
2022-09-02T23:07:34.263Z,53.13
2022-09-02T23:10:02.274Z,53.26
2022-09-02T23:13:00.774Z,53.31
2022-09-02T23:15:42.606Z,53.63
2022-09-02T23:18:33.092Z,53.34
2022-09-02T23:21:09.573Z,53.60
2022-09-02T23:24:03.161Z,53.38
2022-09-02T23:26:35.787Z,53.64
2022-09-02T23:29:10.269Z,53.98
2022-09-02T23:32:20.949Z,54.41
2022-09-02T23:35:27.777Z,54.66
2022-09-02T23:38:20.176Z,54.21
2022-09-02T23:40:54.602Z,54.19
2022-09-02T23:43:22.081Z,54.17
2022-09-02T23:45:48.888Z,54.30
2022-09-02T23:48:35.193Z,54.65
2022-09-02T23:51:14.181Z,55.29
2022-09-02T23:54:19.265Z,55.59
2022-09-02T23:57:01.089Z,55.83
2022-09-02T23:59:46.965Z,55.81
